Time;durP1;ratioP1;P1;durP2;ratioP2;P2;SDS_P1;SDS_P2;PMS_P1;PMS_P2;Temp;Humidity;BMP_temperature;BMP_pressure;BME280_temperature;BME280_humidity;BME280_pressure;Samples;Min_cycle;Max_cycle;Signal;HPM_P1;HPM_P2
2023/06/10 00:00:15;;;;;;;11.70;7.03;;;;;;;16.95;100.00;101598.56;5075748;28;20098;-80
2023/06/10 00:02:42;;;;;;;12.07;7.03;;;;;;;16.89;100.00;101589.31;5094063;28;20054;-80
2023/06/10 00:05:09;;;;;;;18.30;8.88;;;;;;;16.85;100.00;101586.06;5093878;28;20491;-80
2023/06/10 00:07:37;;;;;;;16.55;8.90;;;;;;;16.82;100.00;101588.25;5093968;28;20079;-80
2023/06/10 00:10:06;;;;;;;20.10;9.82;;;;;;;16.77;100.00;101594.09;5093833;28;20380;-79
2023/06/10 00:12:36;;;;;;;16.33;9.75;;;;;;;16.73;100.00;101592.72;5093784;28;20064;-79
2023/06/10 00:15:03;;;;;;;14.88;11.48;;;;;;;16.69;100.00;101594.06;5093842;28;20460;-79
2023/06/10 00:17:28;;;;;;;21.63;13.27;;;;;;;16.64;100.00;101589.16;5093607;28;20053;-80
2023/06/10 00:19:55;;;;;;;25.00;15.73;;;;;;;16.60;100.00;101593.19;5059744;28;20028;-80
2023/06/10 00:22:22;;;;;;;30.55;18.05;;;;;;;16.55;100.00;101587.44;5093528;28;20116;-80
2023/06/10 00:24:47;;;;;;;29.08;19.83;;;;;;;16.52;100.00;101587.78;5093010;28;20035;-80
2023/06/10 00:27:13;;;;;;;35.65;21.23;;;;;;;16.49;100.00;101588.91;5092504;28;20499;-80
2023/06/10 00:29:39;;;;;;;38.33;22.70;;;;;;;16.47;100.00;101595.47;5092386;28;20039;-80
2023/06/10 00:32:05;;;;;;;34.95;22.02;;;;;;;16.41;100.00;101599.63;5093119;28;20460;-80
2023/06/10 00:34:30;;;;;;;37.58;22.33;;;;;;;16.38;100.00;101595.41;5092732;28;20039;-80
2023/06/10 00:36:56;;;;;;;33.00;21.75;;;;;;;16.36;100.00;101601.94;5092583;28;20408;-80
2023/06/10 00:39:21;;;;;;;36.65;21.90;;;;;;;16.32;100.00;101589.84;5075042;28;20377;-80
2023/06/10 00:41:46;;;;;;;31.42;20.35;;;;;;;16.28;100.00;101599.22;5093069;28;20129;-80
2023/06/10 00:44:12;;;;;;;32.70;20.25;;;;;;;16.24;100.00;101605.91;5074458;28;20040;-80
2023/06/10 00:46:37;;;;;;;30.10;18.00;;;;;;;16.20;100.00;101602.69;5092582;28;20076;-80
2023/06/10 00:49:03;;;;;;;23.05;15.20;;;;;;;16.13;100.00;101594.41;5092875;28;20032;-79
2023/06/10 00:51:29;;;;;;;22.42;14.05;;;;;;;16.10;100.00;101601.94;5092929;28;20080;-81
2023/06/10 00:53:54;;;;;;;19.77;12.23;;;;;;;16.06;100.00;101597.88;5092847;28;20103;-80
2023/06/10 00:56:21;;;;;;;16.52;11.32;;;;;;;16.01;100.00;101599.19;5092680;28;20107;-81
2023/06/10 00:58:47;;;;;;;14.52;10.45;;;;;;;15.98;100.00;101604.03;5093006;28;20077;-80
2023/06/10 01:01:13;;;;;;;21.55;8.80;;;;;;;15.94;100.00;101595.44;5075619;28;20047;-80
2023/06/10 01:03:39;;;;;;;12.95;8.77;;;;;;;15.90;100.00;101601.28;5093256;28;20036;-80
2023/06/10 01:06:49;;;;;;;10.75;7.70;;;;;;;15.84;100.00;101589.34;5075408;28;20028;-80
2023/06/10 01:09:57;;;;;;;8.70;6.55;;;;;;;15.80;100.00;101593.34;5092420;28;20039;-79
2023/06/10 01:12:28;;;;;;;11.88;6.97;;;;;;;15.75;100.00;101592.91;5092824;28;20060;-81
2023/06/10 01:14:55;;;;;;;13.35;6.07;;;;;;;15.71;100.00;101597.75;5093264;28;20077;-81
2023/06/10 01:17:20;;;;;;;11.85;6.20;;;;;;;15.67;100.00;101594.56;5092665;28;20097;-81
2023/06/10 01:19:56;;;;;;;8.18;5.85;;;;;;;15.64;100.00;101597.50;5093419;28;20452;-81
2023/06/10 01:22:28;;;;;;;7.78;5.22;;;;;;;15.60;100.00;101596.16;5092885;28;20068;-81
2023/06/10 01:24:57;;;;;;;6.72;5.32;;;;;;;15.58;100.00;101599.97;5075507;28;20032;-81
2023/06/10 01:27:29;;;;;;;10.15;5.43;;;;;;;15.57;100.00;101604.50;5092929;28;20039;-80
2023/06/10 01:29:59;;;;;;;;;;;;;;;15.56;100.00;101596.63;5093889;28;20024;-81
2023/06/10 01:32:34;;;;;;;9.70;5.50;;;;;;;15.54;100.00;101598.59;5093451;28;19908;-81
2023/06/10 01:35:02;;;;;;;9.52;5.72;;;;;;;15.53;100.00;101600.44;5093090;28;20027;-81
2023/06/10 01:37:28;;;;;;;10.35;5.40;;;;;;;15.50;100.00;101593.53;5092465;28;20108;-82
2023/06/10 01:39:58;;;;;;;10.93;5.97;;;;;;;15.47;100.00;101596.53;5092675;28;20101;-82
2023/06/10 01:42:24;;;;;;;7.93;5.85;;;;;;;15.46;100.00;101594.84;5092691;28;20032;-82
2023/06/10 01:44:50;;;;;;;12.35;5.72;;;;;;;15.46;100.00;101602.03;5092907;28;20032;-80
2023/06/10 01:47:15;;;;;;;8.73;6.10;;;;;;;15.43;100.00;101599.66;5092387;28;20062;-80
2023/06/10 01:49:41;;;;;;;11.27;5.65;;;;;;;15.39;100.00;101599.16;5092812;28;20043;-81
2023/06/10 01:52:06;;;;;;;10.60;5.65;;;;;;;15.35;100.00;101600.44;5074054;28;20081;-80
2023/06/10 01:54:34;;;;;;;10.45;5.60;;;;;;;15.30;100.00;101595.53;5092178;28;20510;-81
2023/06/10 01:57:00;;;;;;;13.65;6.10;;;;;;;15.27;100.00;101598.53;5092765;28;20039;-81
2023/06/10 01:59:25;;;;;;;8.68;6.32;;;;;;;15.25;100.00;101599.66;5095614;28;20052;-82
2023/06/10 02:01:50;;;;;;;10.48;5.88;;;;;;;15.20;100.00;101600.13;5061408;28;20380;-81
2023/06/10 02:04:16;;;;;;;11.70;6.30;;;;;;;15.16;100.00;101594.19;5095745;28;20035;-81
2023/06/10 02:06:42;;;;;;;11.57;6.40;;;;;;;15.14;100.00;101603.41;5095219;28;20028;-80
2023/06/10 02:09:07;;;;;;;11.35;5.80;;;;;;;15.10;100.00;101602.00;5095452;28;20125;-81
2023/06/10 02:11:33;;;;;;;10.27;5.70;;;;;;;15.07;100.00;101600.47;5095610;28;20464;-81
2023/06/10 02:13:58;;;;;;;8.95;6.28;;;;;;;15.04;100.00;101606.13;5095340;28;20086;-81
2023/06/10 02:16:23;;;;;;;12.55;6.35;;;;;;;15.02;100.00;101600.09;5095604;28;20380;-81
2023/06/10 02:18:49;;;;;;;8.98;6.07;;;;;;;15.01;100.00;101606.41;5096400;28;20115;-81
2023/06/10 02:21:14;;;;;;;8.90;6.18;;;;;;;14.99;100.00;101603.06;5096375;28;20032;-81
2023/06/10 02:23:40;;;;;;;13.75;5.85;;;;;;;14.99;100.00;101603.06;5095400;28;20024;-81
2023/06/10 02:26:05;;;;;;;9.93;5.38;;;;;;;14.95;100.00;101599.81;5095463;28;20086;-81
2023/06/10 02:28:31;;;;;;;12.93;6.15;;;;;;;14.94;100.00;101606.19;5095964;28;20039;-79
2023/06/10 02:30:56;;;;;;;9.35;5.50;;;;;;;14.92;100.00;101604.66;5096461;28;20032;-79
2023/06/10 02:33:23;;;;;;;12.38;5.40;;;;;;;14.88;100.00;101604.09;5095972;28;20119;-81
2023/06/10 02:35:48;;;;;;;8.70;5.75;;;;;;;14.86;100.00;101610.59;5096196;28;20038;-80
2023/06/10 02:38:14;;;;;;;9.35;5.63;;;;;;;14.84;100.00;101615.25;5095019;28;20472;-81
2023/06/10 02:40:39;;;;;;;10.35;5.68;;;;;;;14.81;100.00;101614.56;5095336;28;20450;-81
2023/06/10 02:43:04;;;;;;;7.93;5.30;;;;;;;14.79;100.00;101611.19;5094736;28;20047;-81
2023/06/10 02:45:30;;;;;;;9.50;5.60;;;;;;;14.78;100.00;101612.19;5095934;28;20119;-81
2023/06/10 02:47:55;;;;;;;7.88;5.10;;;;;;;14.75;100.00;101611.63;5077643;28;20035;-81
2023/06/10 02:50:21;;;;;;;9.75;5.38;;;;;;;14.73;100.00;101605.56;5095894;28;20052;-81
2023/06/10 02:52:48;;;;;;;7.05;5.32;;;;;;;14.70;100.00;101608.56;5095123;28;20111;-80
2023/06/10 02:55:14;;;;;;;10.10;5.38;;;;;;;14.67;100.00;101608.84;5094783;28;20468;-80
2023/06/10 02:57:39;;;;;;;9.60;5.35;;;;;;;14.66;100.00;101608.00;5094978;28;20035;-80
2023/06/10 03:00:09;;;;;;;11.77;5.57;;;;;;;14.62;100.00;101599.41;5095437;28;20476;-80
2023/06/10 03:02:39;;;;;;;8.32;5.20;;;;;;;14.61;100.00;101602.25;5095409;28;20048;-81
2023/06/10 03:05:09;;;;;;;13.70;5.22;;;;;;;14.59;100.00;101610.38;5095168;28;20055;-80
2023/06/10 03:07:35;;;;;;;7.00;5.22;;;;;;;14.59;100.00;101609.56;5095221;28;20123;-80
2023/06/10 03:10:01;;;;;;;10.73;5.13;;;;;;;14.60;100.00;101611.22;5076173;28;20086;-80
2023/06/10 03:12:26;;;;;;;6.43;4.70;;;;;;;14.61;100.00;101607.59;5094291;28;20031;-81
2023/06/10 03:14:51;;;;;;;8.18;4.85;;;;;;;14.58;100.00;101606.00;5094429;28;20070;-81
2023/06/10 03:17:17;;;;;;;8.13;4.60;;;;;;;14.57;100.00;101607.03;5094274;28;20084;-81
2023/06/10 03:19:42;;;;;;;8.00;5.40;;;;;;;14.55;100.00;101605.47;5076354;28;20036;-80
2023/06/10 03:22:13;;;;;;;7.43;4.97;;;;;;;14.54;100.00;101609.13;5093887;28;20028;-80
2023/06/10 03:24:39;;;;;;;7.10;5.60;;;;;;;14.51;100.00;101609.44;5094667;28;20039;-80
2023/06/10 03:27:10;;;;;;;7.13;5.30;;;;;;;14.51;100.00;101609.44;5094768;28;20060;-80
2023/06/10 03:29:37;;;;;;;11.77;5.30;;;;;;;14.48;100.00;101607.91;5094987;28;20036;-80
2023/06/10 03:32:02;;;;;;;11.02;5.72;;;;;;;14.48;100.00;101623.97;5094124;28;20524;-81
2023/06/10 03:34:29;;;;;;;8.63;5.40;;;;;;;14.47;100.00;101619.59;5094309;28;20074;-80
2023/06/10 03:36:55;;;;;;;9.00;4.90;;;;;;;14.45;100.00;101619.75;5093950;28;20040;-79
2023/06/10 03:39:20;;;;;;;7.63;4.68;;;;;;;14.45;100.00;101624.22;5093994;28;20090;-80
2023/06/10 03:41:46;;;;;;;9.07;5.43;;;;;;;14.45;100.00;101633.13;5075787;28;20380;-80
2023/06/10 03:44:11;;;;;;;9.68;5.13;;;;;;;14.47;100.00;101635.66;5094028;28;20063;-81
2023/06/10 03:46:36;;;;;;;9.90;5.55;;;;;;;14.45;100.00;101634.94;5076162;28;20036;-80
2023/06/10 03:49:02;;;;;;;13.40;5.40;;;;;;;14.44;100.00;101635.97;5094609;28;20511;-81
2023/06/10 03:51:28;;;;;;;12.88;5.90;;;;;;;14.40;100.00;101635.38;5076268;28;20396;-80
2023/06/10 03:53:53;;;;;;;11.35;5.25;;;;;;;14.37;100.00;101635.69;5094548;28;20042;-81
2023/06/10 03:56:19;;;;;;;8.30;5.07;;;;;;;14.36;100.00;101638.50;5094326;28;20032;-80
2023/06/10 03:58:44;;;;;;;8.02;5.00;;;;;;;14.35;100.00;101642.19;5094036;28;20020;-80
2023/06/10 04:01:10;;;;;;;5.88;4.90;;;;;;;14.33;100.00;101639.66;5095330;28;20139;-81
2023/06/10 04:03:36;;;;;;;7.70;5.35;;;;;;;14.34;100.00;101640.47;5094138;28;20032;-81
2023/06/10 04:06:02;;;;;;;9.65;5.05;;;;;;;14.35;100.00;101642.19;5093975;28;20036;-81
2023/06/10 04:08:28;;;;;;;12.77;5.63;;;;;;;14.38;100.00;101649.94;5094020;28;20032;-80
2023/06/10 04:10:53;;;;;;;13.27;4.90;;;;;;;14.43;100.00;101644.97;5093842;28;20024;-81
2023/06/10 04:13:19;;;;;;;11.90;5.93;;;;;;;14.47;100.00;101646.38;5094127;28;20427;-80
2023/06/10 04:15:45;;;;;;;8.93;5.28;;;;;;;14.52;100.00;101646.75;5093845;28;20024;-81
2023/06/10 04:18:10;;;;;;;8.13;5.50;;;;;;;14.59;100.00;101650.56;5094565;28;20028;-81
2023/06/10 04:20:35;;;;;;;7.65;5.10;;;;;;;14.65;100.00;101651.00;5093420;28;20466;-81
2023/06/10 04:23:01;;;;;;;9.57;4.75;;;;;;;14.68;100.00;101653.41;5093801;28;20032;-80
2023/06/10 04:25:27;;;;;;;11.25;5.57;;;;;;;14.71;100.00;101661.97;5093950;28;20484;-80
2023/06/10 04:27:52;;;;;;;14.38;5.30;;;;;;;14.74;100.00;101648.28;5093585;28;20100;-81
2023/06/10 04:30:18;;;;;;;8.80;5.43;;;;;;;14.84;100.00;101656.28;5093495;28;20465;-81
2023/06/10 04:32:43;;;;;;;10.63;5.00;;;;;;;14.91;100.00;101659.22;5093822;28;20031;-81
2023/06/10 04:35:12;;;;;;;9.98;5.38;;;;;;;14.98;100.00;101663.00;5093646;28;20090;-82
2023/06/10 04:37:38;;;;;;;12.50;4.95;;;;;;;15.03;100.00;101668.75;5093759;28;20032;-80
2023/06/10 04:40:05;;;;;;;9.88;5.18;;;;;;;15.09;100.00;101665.50;5093376;28;20578;-80
2023/06/10 04:42:30;;;;;;;10.65;5.15;;;;;;;15.17;100.00;101667.44;5093452;28;20499;-81
2023/06/10 04:44:56;;;;;;;7.28;5.00;;;;;;;15.25;100.00;101670.19;5093763;28;20036;-80
2023/06/10 04:47:21;;;;;;;9.88;5.93;;;;;;;15.30;100.00;101665.25;5093174;28;20035;-80
2023/06/10 04:49:46;;;;;;;11.85;5.50;;;;;;;15.37;100.00;101667.31;5093454;28;20457;-81
2023/06/10 04:52:12;;;;;;;10.27;5.65;;;;;;;15.39;100.00;101666.19;5093391;28;20380;-81
2023/06/10 04:54:38;;;;;;;15.07;5.32;;;;;;;15.46;100.00;101672.59;5076095;28;20119;-81
2023/06/10 04:57:03;;;;;;;12.90;5.22;;;;;;;15.51;100.00;101667.66;5075701;28;20028;-81
2023/06/10 04:59:29;;;;;;;10.32;5.85;;;;;;;15.58;100.00;101673.22;5093345;28;20095;-81
2023/06/10 05:01:55;;;;;;;7.00;5.13;;;;;;;15.62;100.00;101663.88;5075311;28;20033;-81
2023/06/10 05:04:20;;;;;;;9.35;4.55;;;;;;;15.71;100.00;101669.34;5093280;28;20078;-82
2023/06/10 05:06:46;;;;;;;8.73;5.07;;;;;;;15.78;100.00;101673.13;5075049;28;20124;-81
2023/06/10 05:09:11;;;;;;;8.13;4.97;;;;;;;15.83;100.00;101669.00;5075129;28;20032;-81
2023/06/10 05:11:36;;;;;;;7.90;4.80;;;;;;;15.93;100.00;101676.97;5093813;28;20068;-80
2023/06/10 05:14:02;;;;;;;7.68;5.18;;;;;;;16.03;100.00;101676.88;5092857;28;20028;-80
2023/06/10 05:16:27;;;;;;;10.00;5.13;;;;;;;16.12;100.00;101673.28;5092875;28;20513;-81
2023/06/10 05:18:53;;;;;;;8.63;5.10;;;;;;;16.19;100.00;101671.63;5093054;28;20461;-81
2023/06/10 05:21:18;;;;;;;6.50;5.07;;;;;;;16.25;100.00;101664.81;5093012;28;20434;-82
2023/06/10 05:23:43;;;;;;;14.13;5.18;;;;;;;16.29;100.00;101671.56;5092809;28;20388;-81
2023/06/10 05:26:09;;;;;;;13.00;5.80;;;;;;;16.34;100.00;101671.09;5093022;28;20024;-81
2023/06/10 05:28:34;;;;;;;10.23;5.57;;;;;;;16.38;100.00;101670.63;5074825;28;20042;-80
2023/06/10 05:30:59;;;;;;;8.13;5.30;;;;;;;16.46;100.00;101671.66;5092959;28;20060;-79
2023/06/10 05:33:25;;;;;;;7.07;5.13;;;;;;;16.54;100.00;101677.09;5094921;28;20093;-78
2023/06/10 05:35:50;;;;;;;12.02;5.35;;;;;;;16.64;100.00;101677.00;5096866;28;20035;-78
2023/06/10 05:38:15;;;;;;;15.38;5.57;;;;;;;16.70;100.00;101676.34;5096737;28;20032;-79
2023/06/10 05:40:41;;;;;;;7.43;5.55;;;;;;;16.81;100.00;101676.09;5079045;28;20042;-78
2023/06/10 05:43:06;;;;;;;7.97;5.32;;;;;;;16.92;100.00;101675.00;5097213;28;20391;-78
2023/06/10 05:45:32;;;;;;;10.32;5.03;;;;;;;17.05;100.00;101678.09;5096626;28;20464;-78
2023/06/10 05:47:57;;;;;;;16.48;5.32;;;;;;;17.18;100.00;101672.25;5096768;28;20028;-80
2023/06/10 05:50:24;;;;;;;9.88;5.55;;;;;;;17.32;100.00;101678.03;5097419;28;20036;-80
2023/06/10 05:52:49;;;;;;;11.40;5.38;;;;;;;17.46;100.00;101677.38;5097049;28;20031;-79
2023/06/10 05:55:15;;;;;;;10.05;5.65;;;;;;;17.61;100.00;101675.72;5096679;28;20107;-80
2023/06/10 05:57:41;;;;;;;10.32;5.82;;;;;;;17.79;100.00;101677.44;5096408;28;20035;-78
2023/06/10 06:00:07;;;;;;;14.15;5.63;;;;;;;18.00;100.00;101678.84;5096748;28;20040;-79
2023/06/10 06:02:33;;;;;;;8.05;5.40;;;;;;;18.17;100.00;101683.22;5096418;28;20054;-81
2023/06/10 06:04:58;;;;;;;9.70;5.55;;;;;;;18.36;100.00;101684.69;5096606;28;20031;-80
2023/06/10 06:07:23;;;;;;;9.43;5.43;;;;;;;18.59;100.00;101678.63;5096090;28;20028;-81
2023/06/10 06:09:49;;;;;;;12.25;5.32;;;;;;;18.77;100.00;101681.13;5096266;28;20059;-80
2023/06/10 06:12:14;;;;;;;11.95;5.20;;;;;;;18.95;100.00;101684.44;5096154;28;20119;-81
2023/06/10 06:14:40;;;;;;;7.70;5.53;;;;;;;19.13;100.00;101675.28;5096076;28;20082;-80
2023/06/10 06:17:06;;;;;;;14.75;5.50;;;;;;;19.27;100.00;101685.34;5096376;28;20059;-81
2023/06/10 06:19:31;;;;;;;10.77;5.88;;;;;;;19.41;100.00;101682.88;5095954;28;20082;-80
2023/06/10 06:21:57;;;;;;;12.50;5.50;;;;;;;19.51;100.00;101686.19;5078136;28;20040;-81
2023/06/10 06:24:22;;;;;;;14.00;5.30;;;;;;;19.61;100.00;101688.69;5077915;28;20038;-81
2023/06/10 06:26:47;;;;;;;10.77;5.22;;;;;;;19.74;100.00;101687.06;5078091;28;20036;-82
2023/06/10 06:29:13;;;;;;;12.63;5.43;;;;;;;19.88;100.00;101684.66;5096173;28;20379;-84
2023/06/10 06:31:38;;;;;;;8.25;5.10;;;;;;;19.98;100.00;101687.13;5096031;28;20034;-83
2023/06/10 06:34:03;;;;;;;10.20;4.97;;;;;;;20.06;100.00;101689.75;5095915;28;20080;-84
2023/06/10 06:36:29;;;;;;;10.65;5.40;;;;;;;20.16;100.00;101690.34;5077924;28;20043;-83
2023/06/10 06:38:54;;;;;;;10.52;5.00;;;;;;;20.32;100.00;101688.50;5095805;28;20062;-83
2023/06/10 06:41:21;;;;;;;8.45;5.70;;;;;;;20.46;100.00;101692.28;5077764;28;20384;-82
2023/06/10 06:43:47;;;;;;;11.25;5.28;;;;;;;20.57;100.00;101692.66;5095747;28;20066;-84
2023/06/10 06:46:12;;;;;;;14.88;5.35;;;;;;;20.73;100.00;101701.66;5095540;28;20094;-84
2023/06/10 06:48:38;;;;;;;10.15;5.07;;;;;;;20.89;100.00;101696.06;5077366;28;20036;-75
2023/06/10 06:51:03;;;;;;;14.15;5.55;;;;;;;21.04;100.00;101693.34;5076898;28;20043;-78
2023/06/10 06:53:28;;;;;;;9.35;5.60;;;;;;;21.15;100.00;101694.72;5095451;28;20032;-79
2023/06/10 06:55:54;;;;;;;8.98;5.15;;;;;;;21.23;100.00;101700.06;5077257;28;20384;-81
2023/06/10 06:58:19;;;;;;;9.40;5.55;;;;;;;21.25;100.00;101705.28;5095374;28;20063;-79
2023/06/10 07:00:44;;;;;;;11.25;5.43;;;;;;;21.28;100.00;101708.44;5095550;28;20075;-81
2023/06/10 07:03:10;;;;;;;8.88;5.38;;;;;;;21.34;100.00;101703.31;5095266;28;20036;-80
2023/06/10 07:05:35;;;;;;;9.25;5.35;;;;;;;21.46;100.00;101697.19;5095730;28;20035;-79
2023/06/10 07:08:00;;;;;;;9.45;5.30;;;;;;;21.64;100.00;101694.09;5095359;28;20036;-81
2023/06/10 07:10:26;;;;;;;7.93;5.53;;;;;;;21.81;100.00;101694.69;5094986;28;20035;-81
2023/06/10 07:12:52;;;;;;;8.50;5.05;;;;;;;21.78;100.00;101689.66;5076982;28;20329;-82
2023/06/10 07:15:18;;;;;;;8.20;5.25;;;;;;;21.90;100.00;101700.84;5095949;28;20027;-83
2023/06/10 07:17:43;;;;;;;11.80;5.55;;;;;;;21.95;100.00;101695.66;5095134;28;20035;-78
2023/06/10 07:20:09;;;;;;;11.27;5.38;;;;;;;22.10;100.00;101692.88;5095107;28;20082;-81
2023/06/10 07:22:35;;;;;;;7.25;5.00;;;;;;;22.25;100.00;101684.66;5076687;28;20080;-85
2023/06/10 07:25:00;;;;;;;9.60;5.50;;;;;;;22.48;100.00;101694.44;5076759;28;20488;-81
2023/06/10 07:27:25;;;;;;;9.70;4.60;;;;;;;22.50;100.00;101693.22;5076662;28;20036;-83
2023/06/10 07:29:51;;;;;;;8.30;5.13;;;;;;;22.62;100.00;101698.94;5094592;28;20035;-82
2023/06/10 07:32:17;;;;;;;7.10;4.93;;;;;;;22.69;100.00;101688.97;5094910;28;20487;-81
2023/06/10 07:34:42;;;;;;;11.45;4.78;;;;;;;22.74;100.00;101691.09;5094799;28;20116;-82
2023/06/10 07:37:08;;;;;;;7.90;5.30;;;;;;;22.80;100.00;101689.47;5095098;28;20035;-81
2023/06/10 07:39:34;;;;;;;13.57;5.50;;;;;;;22.92;98.53;101684.31;5094518;28;20472;-83
2023/06/10 07:42:00;;;;;;;10.95;5.07;;;;;;;23.04;100.00;101688.94;5077073;28;20031;-82
2023/06/10 07:44:25;;;;;;;8.23;5.35;;;;;;;23.19;99.04;101694.25;5094230;28;20077;-81
2023/06/10 07:46:50;;;;;;;7.70;5.30;;;;;;;23.32;95.47;101693.50;5094401;28;20119;-79
2023/06/10 07:49:16;;;;;;;7.00;4.53;;;;;;;23.56;99.04;101688.56;5094783;28;20498;-80
2023/06/10 07:51:42;;;;;;;8.00;5.00;;;;;;;23.77;90.42;101691.09;5093989;28;20032;-80
2023/06/10 07:54:07;;;;;;;10.00;5.30;;;;;;;23.92;90.21;101685.50;5094201;28;20054;-81
2023/06/10 07:56:32;;;;;;;13.98;4.90;;;;;;;24.13;90.15;101697.22;5093479;28;20541;-81
2023/06/10 07:58:58;;;;;;;8.82;4.90;;;;;;;24.29;93.94;101691.38;5094721;28;20063;-80
2023/06/10 08:01:24;;;;;;;13.27;5.18;;;;;;;24.40;96.21;101689.06;5094511;28;20059;-81
2023/06/10 08:03:49;;;;;;;15.25;4.68;;;;;;;24.50;85.57;101692.19;5076130;28;20111;-79
2023/06/10 08:06:16;;;;;;;14.32;5.55;;;;;;;24.61;81.72;101697.00;5093916;28;20127;-80
2023/06/10 08:08:43;;;;;;;8.45;4.97;;;;;;;24.77;91.06;101698.44;5093901;28;20036;-79
2023/06/10 08:11:10;;;;;;;11.75;4.72;;;;;;;24.80;78.05;101702.63;5093956;28;20070;-79
2023/06/10 08:13:35;;;;;;;13.77;5.22;;;;;;;24.94;76.22;101696.09;5093904;28;20039;-79
2023/06/10 08:16:01;;;;;;;10.43;4.80;;;;;;;25.04;76.52;101692.09;5094468;28;20421;-80
2023/06/10 08:18:26;;;;;;;18.90;5.72;;;;;;;25.09;82.20;101693.09;5093653;28;20068;-78
2023/06/10 08:20:51;;;;;;;9.38;5.03;;;;;;;25.15;76.88;101694.13;5075531;28;20024;-78
2023/06/10 08:23:17;;;;;;;12.25;5.50;;;;;;;25.23;75.17;101690.31;5093648;28;20032;-79
2023/06/10 08:25:42;;;;;;;14.32;4.82;;;;;;;25.37;71.61;101691.97;5094025;28;20502;-78
2023/06/10 08:28:08;;;;;;;8.02;4.72;;;;;;;25.61;70.59;101689.53;5093679;28;20031;-79
2023/06/10 08:30:33;;;;;;;8.27;4.95;;;;;;;25.79;74.33;101695.06;5093464;28;20036;-79
2023/06/10 08:32:59;;;;;;;7.75;4.65;;;;;;;25.93;68.47;101690.38;5093937;28;20479;-79
2023/06/10 08:35:24;;;;;;;7.90;4.65;;;;;;;26.07;67.85;101693.88;5076031;28;20032;-81
2023/06/10 08:37:50;;;;;;;12.10;4.70;;;;;;;26.11;72.64;101688.78;5093428;28;20028;-79
2023/06/10 08:40:15;;;;;;;8.40;4.57;;;;;;;26.15;65.96;101690.84;5093482;28;20590;-80
2023/06/10 08:42:47;;;;;;;10.38;4.57;;;;;;;26.27;65.96;101698.31;5094297;28;20460;-79
2023/06/10 08:45:17;;;;;;;8.38;5.05;;;;;;;26.60;69.02;101694.44;5093778;28;20055;-79
2023/06/10 08:47:44;;;;;;;;;;;;;;;26.92;68.42;101696.00;5094015;28;20040;-81
2023/06/10 08:50:10;;;;;;;6.40;4.82;;;;;;;27.01;62.98;101693.78;5093481;28;19908;-80
2023/06/10 08:52:37;;;;;;;5.72;4.35;;;;;;;27.28;65.88;101691.56;5093757;28;20503;-80
2023/06/10 08:55:17;;;;;;;11.15;5.00;;;;;;;27.56;58.06;101690.16;5093775;28;20555;-79
2023/06/10 08:57:45;;;;;;;10.20;5.00;;;;;;;27.69;58.50;101696.50;5097359;28;20043;-81
2023/06/10 09:00:12;;;;;;;12.20;5.18;;;;;;;27.87;64.22;101698.31;5098534;28;20088;-80
2023/06/10 09:02:38;;;;;;;10.75;4.85;;;;;;;28.14;56.75;101696.88;5093993;28;20058;-81
2023/06/10 09:05:03;;;;;;;9.65;4.97;;;;;;;28.21;57.01;101695.91;5094282;28;20114;-81
2023/06/10 09:07:31;;;;;;;6.32;4.78;;;;;;;28.68;53.36;101704.16;5096028;28;20036;-81
2023/06/10 09:09:58;;;;;;;7.63;4.72;;;;;;;28.97;54.53;101701.47;5097785;28;20107;-79
2023/06/10 09:12:24;;;;;;;15.43;5.10;;;;;;;29.22;50.45;101708.59;5079312;28;20028;-80
2023/06/10 09:14:49;;;;;;;8.00;5.03;;;;;;;29.58;51.90;101699.16;5097636;28;20429;-79
2023/06/10 09:17:15;;;;;;;6.88;4.60;;;;;;;29.78;51.33;101700.59;5097788;28;20051;-80
2023/06/10 09:19:43;;;;;;;9.32;5.10;;;;;;;29.91;47.32;101703.03;5098241;28;20024;-79
2023/06/10 09:22:09;;;;;;;10.05;5.05;;;;;;;30.03;48.29;101697.47;5097285;28;20046;-81
2023/06/10 09:24:35;;;;;;;10.98;5.32;;;;;;;30.28;47.56;101705.28;5097452;28;20028;-79
2023/06/10 09:27:08;;;;;;;12.85;4.45;;;;;;;30.43;48.13;101699.22;5098304;28;20131;-76
2023/06/10 09:29:53;;;;;;;9.88;4.50;;;;;;;30.65;47.44;101699.28;5097146;28;20028;-76
2023/06/10 09:32:19;;;;;;;9.93;4.80;;;;;;;30.81;46.27;101696.72;5097223;28;20031;-73
2023/06/10 09:34:45;;;;;;;9.43;4.47;;;;;;;31.16;46.75;101699.13;5096836;28;20084;-73
2023/06/10 09:37:13;;;;;;;10.43;4.85;;;;;;;31.20;43.04;101696.69;5097022;28;20051;-78
2023/06/10 09:39:39;;;;;;;9.25;5.30;;;;;;;31.41;42.75;101697.72;5096861;28;20071;-73
2023/06/10 09:42:25;;;;;;;9.75;4.68;;;;;;;31.45;45.36;101699.69;5097154;28;20027;-76
2023/06/10 09:44:52;;;;;;;13.00;4.53;;;;;;;31.46;43.60;101698.63;5096455;28;20540;-74
2023/06/10 09:47:22;;;;;;;11.15;4.80;;;;;;;31.63;45.01;101692.22;5097021;28;20032;-74
2023/06/10 09:49:48;;;;;;;;;;;;;;;31.72;43.80;101690.63;5097504;28;20168;-74
2023/06/10 09:52:13;;;;;;;10.75;4.75;;;;;;;31.73;40.41;101691.50;5096801;28;19977;-75
2023/06/10 09:54:39;;;;;;;8.80;4.70;;;;;;;31.54;41.71;101691.81;5096523;28;20032;-76
2023/06/10 09:57:08;;;;;;;12.45;5.43;;;;;;;31.83;44.43;101699.84;5096785;28;20060;-77
2023/06/10 09:59:34;;;;;;;10.07;4.90;;;;;;;31.57;41.92;101694.06;5096338;28;20064;-76
2023/06/10 10:02:00;;;;;;;15.25;4.97;;;;;;;31.60;40.41;101679.81;5096804;28;20036;-79
2023/06/10 10:04:26;;;;;;;9.00;4.50;;;;;;;31.86;42.13;101692.97;5096526;28;20377;-77
2023/06/10 10:06:52;;;;;;;10.55;5.07;;;;;;;31.55;40.98;101689.91;5096162;28;20118;-77
2023/06/10 10:09:18;;;;;;;11.00;4.60;;;;;;;31.28;42.99;101688.00;5096345;28;20070;-80
2023/06/10 10:11:44;;;;;;;5.50;4.30;;;;;;;31.51;45.49;101681.34;5096272;28;20071;-76
2023/06/10 10:14:10;;;;;;;16.55;4.53;;;;;;;31.87;42.92;101687.19;5097104;28;20043;-77
2023/06/10 10:16:40;;;;;;;7.15;4.60;;;;;;;31.67;42.23;101678.78;5098897;28;20043;-82
2023/06/10 10:19:20;;;;;;;10.82;5.18;;;;;;;31.62;42.14;101680.38;5078807;28;20035;-77
2023/06/10 10:21:53;;;;;;;8.23;4.70;;;;;;;32.02;43.84;101689.25;5097079;28;20050;-78
2023/06/10 10:24:22;;;;;;;15.88;4.63;;;;;;;32.17;42.08;101683.03;5096937;28;20266;-77
2023/06/10 10:26:50;;;;;;;14.40;4.93;;;;;;;32.11;41.53;101678.59;5096574;28;20115;-77
2023/06/10 10:29:36;;;;;;;7.93;4.32;;;;;;;32.26;41.69;101675.13;5096203;28;20059;-77
2023/06/10 10:32:03;;;;;;;13.40;4.72;;;;;;;32.37;40.67;101676.88;5096675;28;20028;-78
2023/06/10 10:34:49;;;;;;;11.52;4.78;;;;;;;32.49;38.03;101676.66;5095856;28;20039;-77
2023/06/10 10:37:16;;;;;;;8.73;4.80;;;;;;;32.61;39.42;101679.19;5096663;28;20054;-77
2023/06/10 10:39:42;;;;;;;9.23;4.60;;;;;;;32.80;38.20;101674.91;5095603;28;20032;-76
2023/06/10 10:42:11;;;;;;;10.48;4.82;;;;;;;32.93;37.96;101672.75;5095603;28;20361;-76
2023/06/10 10:44:40;;;;;;;9.57;4.93;;;;;;;33.57;39.59;101675.13;5095532;28;20028;-76
2023/06/10 10:47:09;;;;;;;7.93;4.40;;;;;;;33.87;37.82;101673.50;5095316;28;20040;-76
2023/06/10 10:49:36;;;;;;;9.13;4.43;;;;;;;33.98;36.80;101676.25;5095923;28;20035;-77
2023/06/10 10:52:05;;;;;;;7.43;4.50;;;;;;;34.32;37.81;101672.94;5095390;28;20528;-78
2023/06/10 10:54:39;;;;;;;9.25;4.38;;;;;;;34.64;35.51;101683.63;5095913;28;20107;-77
2023/06/10 10:57:21;;;;;;;9.32;4.47;;;;;;;34.56;35.07;101673.97;5095304;28;20024;-78
2023/06/10 10:59:51;;;;;;;8.20;4.65;;;;;;;34.93;33.78;101663.63;5076785;28;20063;-77
2023/06/10 11:02:32;;;;;;;;;;;;;;;35.33;34.68;101664.50;5096060;28;20051;-78
2023/06/10 11:04:57;;;;;;;6.60;4.32;;;;;;;35.76;33.88;101664.75;5095224;28;20304;-72
2023/06/10 11:07:25;;;;;;;10.65;4.63;;;;;;;36.26;35.01;101661.78;5095048;28;20039;-72
2023/06/10 11:10:02;;;;;;;5.70;4.78;;;;;;;36.13;31.03;101668.84;5095115;28;20036;-77
2023/06/10 11:12:54;;;;;;;8.48;4.55;;;;;;;36.36;29.93;101655.34;5076958;28;20422;-77
2023/06/10 11:15:24;;;;;;;6.82;3.92;;;;;;;36.88;29.25;101653.59;5090307;28;20178;-76